createdAt,value
2019-05-10T00:00:08.920Z,10.57
2019-05-10T00:02:56.123Z,10.20
2019-05-10T00:05:42.983Z,10.53
2019-05-10T00:08:30.140Z,10.70
2019-05-10T00:11:33.581Z,11.00
2019-05-10T00:14:17.430Z,9.93
2019-05-10T00:16:48.247Z,10.03
2019-05-10T00:19:17.800Z,10.50
2019-05-10T00:21:47.220Z,11.00
2019-05-10T00:24:16.700Z,10.37
2019-05-10T00:26:46.156Z,10.20
2019-05-10T00:29:15.602Z,11.67
2019-05-10T00:31:45.026Z,10.13
2019-05-10T00:34:14.457Z,11.23
2019-05-10T00:36:43.904Z,13.10
2019-05-10T00:39:13.368Z,13.17
2019-05-10T00:41:42.799Z,11.90
2019-05-10T00:44:12.232Z,11.50
2019-05-10T00:46:41.712Z,12.07
2019-05-10T00:49:11.240Z,12.10
2019-05-10T00:51:40.681Z,11.00
2019-05-10T00:54:10.107Z,12.27
2019-05-10T00:56:39.545Z,11.40
2019-05-10T00:59:08.982Z,11.40
2019-05-10T01:01:38.424Z,12.77
2019-05-10T01:04:07.831Z,11.83
2019-05-10T01:06:37.263Z,10.83
2019-05-10T01:09:07.448Z,11.13
2019-05-10T01:11:36.898Z,11.40
2019-05-10T01:14:06.322Z,11.47
2019-05-10T01:16:35.767Z,11.50
2019-05-10T01:19:05.188Z,11.40
2019-05-10T01:21:34.627Z,12.27
2019-05-10T01:24:04.075Z,10.40
2019-05-10T01:26:33.517Z,9.20
2019-05-10T01:29:03.059Z,10.77
2019-05-10T01:31:32.554Z,10.70
2019-05-10T01:34:01.971Z,9.67
2019-05-10T01:36:31.419Z,10.57
2019-05-10T01:39:00.845Z,10.60
2019-05-10T01:41:30.340Z,11.27
2019-05-10T01:43:59.787Z,11.90
2019-05-10T01:46:29.217Z,10.93
2019-05-10T01:48:58.660Z,10.67
2019-05-10T01:51:28.174Z,9.60
2019-05-10T01:53:57.583Z,8.40
2019-05-10T01:56:26.992Z,8.87
2019-05-10T01:58:56.446Z,8.63
2019-05-10T02:01:25.887Z,7.93
2019-05-10T02:03:55.332Z,8.20
2019-05-10T02:06:24.732Z,7.80
2019-05-10T02:08:54.165Z,7.63
2019-05-10T02:11:23.598Z,9.23
2019-05-10T02:13:53.207Z,8.23
2019-05-10T02:16:22.635Z,7.93
2019-05-10T02:18:52.052Z,8.53
2019-05-10T02:21:21.489Z,7.80
2019-05-10T02:23:50.918Z,8.47
2019-05-10T02:26:20.360Z,7.83
2019-05-10T02:28:49.780Z,8.10
2019-05-10T02:31:21.758Z,7.67
2019-05-10T02:33:50.374Z,7.70
2019-05-10T02:36:19.857Z,7.97
2019-05-10T02:38:49.282Z,7.53
2019-05-10T02:41:18.685Z,8.07
2019-05-10T02:43:48.099Z,7.40
2019-05-10T02:46:17.561Z,6.50
2019-05-10T02:48:47.018Z,7.40
2019-05-10T02:51:16.448Z,7.30
2019-05-10T02:53:45.865Z,7.60
2019-05-10T02:56:29.997Z,6.27
2019-05-10T02:58:46.535Z,7.93
2019-05-10T03:01:16.332Z,6.73
2019-05-10T03:03:46.091Z,6.37
2019-05-10T03:06:16.508Z,6.27
2019-05-10T03:08:49.365Z,6.20
2019-05-10T03:11:18.796Z,6.33
2019-05-10T03:13:49.735Z,5.90
2019-05-10T03:16:20.286Z,5.83
2019-05-10T03:18:50.050Z,6.60
2019-05-10T03:21:19.478Z,6.43
2019-05-10T03:23:49.329Z,5.70
2019-05-10T03:26:18.872Z,5.70
2019-05-10T03:28:48.313Z,6.10
2019-05-10T03:31:17.751Z,6.30
2019-05-10T03:33:54.785Z,5.67
2019-05-10T03:36:18.343Z,5.93
2019-05-10T03:38:47.779Z,5.30
2019-05-10T03:41:17.212Z,7.08
2019-05-10T03:43:46.739Z,6.60
2019-05-10T03:46:16.169Z,6.40
2019-05-10T03:48:45.636Z,6.55
2019-05-10T03:51:15.062Z,7.00
2019-05-10T03:53:44.481Z,5.77
2019-05-10T03:56:13.908Z,6.03
2019-05-10T03:58:43.343Z,5.90
2019-05-10T04:01:12.746Z,4.97
2019-05-10T04:03:42.169Z,5.70
2019-05-10T04:06:11.582Z,5.77
2019-05-10T04:08:41.007Z,6.07
2019-05-10T04:11:10.534Z,5.60
2019-05-10T04:13:40.003Z,6.00
2019-05-10T04:16:09.408Z,6.67
2019-05-10T04:18:38.812Z,6.93
2019-05-10T04:21:08.249Z,6.03
2019-05-10T04:23:37.675Z,5.93
2019-05-10T04:26:07.103Z,6.63
2019-05-10T04:28:36.509Z,6.50
2019-05-10T04:31:05.990Z,6.80
2019-05-10T04:33:35.422Z,7.80
2019-05-10T04:36:04.854Z,7.90
2019-05-10T04:38:34.302Z,7.40
2019-05-10T04:41:03.732Z,8.30
2019-05-10T04:43:33.275Z,7.40
2019-05-10T04:46:02.744Z,7.07
2019-05-10T04:48:32.155Z,6.97
2019-05-10T04:51:01.581Z,8.23
2019-05-10T04:53:31.014Z,6.43
2019-05-10T04:56:00.520Z,8.53
2019-05-10T04:58:29.940Z,7.47
2019-05-10T05:00:59.377Z,7.30
2019-05-10T05:03:28.802Z,7.63
2019-05-10T05:05:58.230Z,6.17
2019-05-10T05:08:27.682Z,6.90
2019-05-10T05:10:57.109Z,6.40
2019-05-10T05:13:26.567Z,6.83
2019-05-10T05:15:55.964Z,7.23
2019-05-10T05:18:25.403Z,7.27
2019-05-10T05:20:54.858Z,8.30
2019-05-10T05:23:24.271Z,6.63
2019-05-10T05:25:53.771Z,5.83
2019-05-10T05:28:24.665Z,6.90
2019-05-10T05:30:54.378Z,5.90
2019-05-10T05:33:23.790Z,5.30
2019-05-10T05:35:53.218Z,5.90
2019-05-10T05:38:22.659Z,6.43
2019-05-10T05:40:52.065Z,5.83
2019-05-10T05:43:21.492Z,4.13
2019-05-10T05:45:50.933Z,5.20
2019-05-10T05:48:21.415Z,6.00
2019-05-10T05:50:51.519Z,8.10
2019-05-10T05:53:22.530Z,6.57
2019-05-10T05:55:52.291Z,6.80
2019-05-10T05:58:26.568Z,7.00
2019-05-10T06:00:52.840Z,6.97
2019-05-10T06:03:27.757Z,6.53
2019-05-10T06:05:53.453Z,7.30
2019-05-10T06:08:24.970Z,8.07
2019-05-10T06:10:57.954Z,6.70
2019-05-10T06:13:30.184Z,7.53
2019-05-10T06:15:59.829Z,7.00
2019-05-10T06:18:27.604Z,7.70
2019-05-10T06:20:57.037Z,6.80
2019-05-10T06:23:29.149Z,6.80
2019-05-10T06:25:57.642Z,7.00
2019-05-10T06:28:56.294Z,6.97
2019-05-10T06:30:58.334Z,6.70
2019-05-10T06:33:27.749Z,7.23
2019-05-10T06:35:57.225Z,7.03
2019-05-10T06:38:26.642Z,7.37
2019-05-10T06:40:56.129Z,6.67
2019-05-10T06:43:25.586Z,7.17
2019-05-10T06:45:55.874Z,5.27
2019-05-10T06:48:27.551Z,6.57
2019-05-10T06:50:56.625Z,6.40
2019-05-10T06:53:26.489Z,5.77
2019-05-10T06:55:55.936Z,7.20
2019-05-10T06:58:25.377Z,5.00
2019-05-10T07:00:54.807Z,5.47
2019-05-10T07:03:24.457Z,3.20
2019-05-10T07:05:53.901Z,4.60
2019-05-10T07:08:23.344Z,4.20
2019-05-10T07:10:52.768Z,3.70
2019-05-10T07:13:22.220Z,3.47
2019-05-10T07:15:51.643Z,4.00
2019-05-10T07:18:22.567Z,3.40
2019-05-10T07:20:52.256Z,3.27
2019-05-10T07:23:21.696Z,3.50
2019-05-10T07:25:52.039Z,4.07
2019-05-10T07:28:21.488Z,3.70
2019-05-10T07:30:50.917Z,3.60
2019-05-10T07:33:20.354Z,3.20
2019-05-10T07:35:49.773Z,3.10
2019-05-10T07:38:23.783Z,3.10
2019-05-10T07:40:50.451Z,4.23
2019-05-10T07:43:26.397Z,3.47
2019-05-10T07:45:51.062Z,2.77
2019-05-10T07:48:23.147Z,3.40
2019-05-10T07:50:51.984Z,3.03
2019-05-10T07:53:22.876Z,2.40
2019-05-10T07:55:52.781Z,2.47
2019-05-10T07:58:22.219Z,2.80
2019-05-10T08:00:51.675Z,2.70
2019-05-10T08:03:23.700Z,1.80
2019-05-10T08:05:57.064Z,2.07
2019-05-10T08:08:23.453Z,2.13
2019-05-10T08:10:52.894Z,2.73
2019-05-10T08:13:25.157Z,2.70
2019-05-10T08:15:53.535Z,2.20
2019-05-10T08:18:25.363Z,2.53
2019-05-10T08:21:01.558Z,2.90
2019-05-10T08:23:27.771Z,2.03
2019-05-10T08:25:56.409Z,2.80
2019-05-10T08:28:27.880Z,2.70
2019-05-10T08:30:58.807Z,2.43
2019-05-10T08:33:28.169Z,2.80
2019-05-10T08:36:00.718Z,2.20
2019-05-10T08:38:28.771Z,2.30
2019-05-10T08:40:58.229Z,2.40
2019-05-10T08:43:33.162Z,2.57
2019-05-10T08:45:58.849Z,3.20
2019-05-10T08:48:28.279Z,2.93
2019-05-10T08:51:04.017Z,2.30
2019-05-10T08:53:28.911Z,2.40
2019-05-10T08:55:59.060Z,1.90
2019-05-10T08:58:36.991Z,1.93
2019-05-10T09:01:15.402Z,1.70
2019-05-10T09:03:32.257Z,1.50
2019-05-10T09:06:03.538Z,1.70
2019-05-10T09:08:34.741Z,2.17
2019-05-10T09:11:06.801Z,1.83
2019-05-10T09:13:40.878Z,1.60
2019-05-10T09:16:06.424Z,1.40
2019-05-10T09:18:38.054Z,1.10
2019-05-10T09:21:09.233Z,2.57
2019-05-10T09:23:38.242Z,1.30
2019-05-10T09:26:10.445Z,1.43
2019-05-10T09:28:38.846Z,1.60
2019-05-10T09:31:18.876Z,1.30
2019-05-10T09:33:41.014Z,1.53
2019-05-10T09:36:12.529Z,1.80
2019-05-10T09:38:45.689Z,1.73
2019-05-10T09:41:12.988Z,1.60
2019-05-10T09:43:49.194Z,1.87
2019-05-10T09:46:14.179Z,2.10
2019-05-10T09:48:45.101Z,1.87
2019-05-10T09:51:19.072Z,1.70
2019-05-10T09:53:48.549Z,1.50
2019-05-10T09:56:17.394Z,1.60
2019-05-10T09:58:48.206Z,1.80
2019-05-10T10:01:21.599Z,1.50
2019-05-10T10:03:49.178Z,2.17
2019-05-10T10:06:18.592Z,1.53
2019-05-10T10:08:51.202Z,2.10
2019-05-10T10:11:19.169Z,1.87
2019-05-10T10:13:58.482Z,2.23
2019-05-10T10:16:19.761Z,1.83
2019-05-10T10:18:49.186Z,1.80
2019-05-10T10:21:27.285Z,1.80
2019-05-10T10:23:49.866Z,1.43
2019-05-10T10:26:22.398Z,1.70
2019-05-10T10:28:55.543Z,1.40
2019-05-10T10:31:29.691Z,1.50
2019-05-10T10:33:58.002Z,1.40
2019-05-10T10:36:23.968Z,1.30
2019-05-10T10:38:53.401Z,1.33
2019-05-10T10:41:30.933Z,1.03
2019-05-10T10:43:53.972Z,1.30
2019-05-10T10:46:23.403Z,1.30
2019-05-10T10:48:52.846Z,1.00
2019-05-10T10:51:26.580Z,1.20
2019-05-10T10:53:54.731Z,1.30
2019-05-10T10:56:24.597Z,1.10
2019-05-10T10:58:54.038Z,1.13
2019-05-10T11:01:25.549Z,1.33
2019-05-10T11:03:54.632Z,1.67
2019-05-10T11:06:24.181Z,1.70
2019-05-10T11:08:53.643Z,1.07
2019-05-10T11:11:23.051Z,1.30
2019-05-10T11:14:00.452Z,1.60
2019-05-10T11:16:23.695Z,1.40
2019-05-10T11:18:53.123Z,1.40
2019-05-10T11:21:23.430Z,1.60
2019-05-10T11:23:53.707Z,1.50
2019-05-10T11:26:26.872Z,1.50
2019-05-10T11:28:54.345Z,2.13
2019-05-10T11:31:23.791Z,1.67
2019-05-10T11:33:58.410Z,2.10
2019-05-10T11:36:24.401Z,1.60
2019-05-10T11:38:58.457Z,2.10
2019-05-10T11:41:24.998Z,1.93
2019-05-10T11:43:57.972Z,1.77
2019-05-10T11:46:27.923Z,1.60
2019-05-10T11:48:56.844Z,1.87
2019-05-10T11:51:26.283Z,1.67
2019-05-10T11:53:59.656Z,1.50
2019-05-10T11:56:27.935Z,1.37
2019-05-10T11:58:57.615Z,1.37
2019-05-10T12:01:27.076Z,1.77
2019-05-10T12:03:56.484Z,1.47
2019-05-10T12:06:25.930Z,1.00
2019-05-10T12:09:01.224Z,1.13
2019-05-10T12:11:33.326Z,1.30
2019-05-10T12:13:57.754Z,1.50
2019-05-10T12:16:27.221Z,1.30
2019-05-10T12:19:15.089Z,1.40
2019-05-10T12:21:28.271Z,1.10
2019-05-10T12:24:10.517Z,1.37
2019-05-10T12:29:11.519Z,1.37
2019-05-10T12:31:31.440Z,1.30
2019-05-10T12:34:09.258Z,1.00
2019-05-10T12:36:32.020Z,1.13
2019-05-10T12:39:01.871Z,1.07
2019-05-10T12:41:31.694Z,1.00
2019-05-10T12:44:04.079Z,1.70
2019-05-10T12:46:32.437Z,1.60
2019-05-10T12:49:04.808Z,1.67
2019-05-10T12:51:33.088Z,1.70
2019-05-10T12:54:02.512Z,1.40
2019-05-10T12:56:34.852Z,1.30
2019-05-10T12:59:03.115Z,1.10
2019-05-10T13:01:33.280Z,1.20
2019-05-10T13:04:13.385Z,1.20
2019-05-10T13:06:34.012Z,1.20
2019-05-10T13:09:04.720Z,1.60
2019-05-10T13:11:34.192Z,1.17
2019-05-10T13:14:07.243Z,1.17
2019-05-10T13:16:34.793Z,1.00
2019-05-10T13:19:04.213Z,1.23
2019-05-10T13:21:33.631Z,0.93
2019-05-10T13:24:03.076Z,1.03
2019-05-10T13:26:32.500Z,1.10
2019-05-10T13:29:07.436Z,1.10
2019-05-10T13:31:42.163Z,1.60
2019-05-10T13:34:04.257Z,2.27
2019-05-10T13:36:37.037Z,3.00
2019-05-10T13:39:05.883Z,2.00
2019-05-10T13:41:35.354Z,2.10
2019-05-10T13:44:06.385Z,1.80
2019-05-10T13:46:36.075Z,2.20
2019-05-10T13:49:05.554Z,2.00
2019-05-10T13:51:34.977Z,2.13
2019-05-10T13:54:05.274Z,2.07
2019-05-10T13:56:35.058Z,2.00
2019-05-10T13:59:14.971Z,2.10
2019-05-10T14:01:35.611Z,1.90
2019-05-10T14:04:05.124Z,4.00
2019-05-10T14:06:34.549Z,2.30
2019-05-10T14:09:06.069Z,2.87
2019-05-10T14:11:40.537Z,3.23
2019-05-10T14:14:06.672Z,3.77
2019-05-10T14:16:36.117Z,3.83
2019-05-10T14:19:05.684Z,3.60
2019-05-10T14:21:35.141Z,6.13
2019-05-10T14:24:09.208Z,4.27
2019-05-10T14:26:35.756Z,2.50
2019-05-10T14:29:05.203Z,2.30
2019-05-10T14:31:34.636Z,2.20
2019-05-10T14:34:19.526Z,2.43
2019-05-10T14:36:41.038Z,3.13
2019-05-10T14:39:07.649Z,2.50
2019-05-10T14:41:39.853Z,3.43
2019-05-10T14:44:08.283Z,2.23
2019-05-10T14:46:37.792Z,3.30
2019-05-10T14:49:09.778Z,2.97
2019-05-10T14:51:56.389Z,2.33
2019-05-10T14:54:09.627Z,3.20
2019-05-10T14:56:39.062Z,3.20
2019-05-10T14:59:08.531Z,1.80
2019-05-10T15:01:42.759Z,2.57
2019-05-10T15:04:09.163Z,2.47
2019-05-10T15:06:39.019Z,2.97
2019-05-10T15:09:20.652Z,3.10
2019-05-10T15:11:40.623Z,2.33
2019-05-10T15:14:10.086Z,2.63
2019-05-10T15:16:39.473Z,2.47
2019-05-10T15:19:08.885Z,2.37
2019-05-10T15:21:38.436Z,3.20
2019-05-10T15:24:07.876Z,2.60
2019-05-10T15:26:43.716Z,3.90
2019-05-10T15:29:08.470Z,2.97
2019-05-10T15:31:37.901Z,3.50
2019-05-10T15:34:07.339Z,2.30
2019-05-10T15:36:36.768Z,2.20
2019-05-10T15:39:07.715Z,2.17
2019-05-10T15:41:37.139Z,2.17
2019-05-10T15:44:06.568Z,2.77
2019-05-10T15:46:41.535Z,2.33
2019-05-10T15:49:07.153Z,2.30
2019-05-10T15:51:36.884Z,2.30
2019-05-10T15:54:07.477Z,3.50
2019-05-10T15:56:41.494Z,1.63
2019-05-10T15:59:12.797Z,1.83
2019-05-10T16:01:39.714Z,2.10
2019-05-10T16:04:09.230Z,2.47
2019-05-10T16:06:39.416Z,1.83
2019-05-10T16:09:16.921Z,2.53
2019-05-10T16:11:40.229Z,2.57
2019-05-10T16:14:09.647Z,2.40
2019-05-10T16:16:39.842Z,2.77
2019-05-10T16:19:12.779Z,2.20
2019-05-10T16:21:40.710Z,2.20
2019-05-10T16:24:13.357Z,2.50
2019-05-10T16:26:41.258Z,2.83
2019-05-10T16:29:10.677Z,2.33
2019-05-10T16:31:40.094Z,2.43
2019-05-10T16:34:09.570Z,1.90
2019-05-10T16:36:39.069Z,2.47
2019-05-10T16:39:08.615Z,2.37
2019-05-10T16:41:38.048Z,2.00
2019-05-10T16:44:07.480Z,2.50
2019-05-10T16:46:37.009Z,2.60
2019-05-10T16:49:10.195Z,2.10
2019-05-10T16:51:37.539Z,2.73
2019-05-10T16:54:09.848Z,1.80
2019-05-10T16:56:38.188Z,2.33
2019-05-10T16:59:07.614Z,2.70
2019-05-10T17:01:37.030Z,2.27
2019-05-10T17:04:06.452Z,2.97
2019-05-10T17:06:40.374Z,2.50
2019-05-10T17:09:09.424Z,3.57
2019-05-10T17:11:41.573Z,3.67
2019-05-10T17:14:12.628Z,2.90
2019-05-10T17:16:41.092Z,3.17
2019-05-10T17:19:10.515Z,3.30
2019-05-10T17:21:39.961Z,3.10
2019-05-10T17:24:09.483Z,3.27
2019-05-10T17:26:38.906Z,3.33
2019-05-10T17:29:12.788Z,3.27
2019-05-10T17:31:45.367Z,3.03
2019-05-10T17:34:10.634Z,3.10
2019-05-10T17:36:40.043Z,3.00
2019-05-10T17:39:09.474Z,3.00
2019-05-10T17:41:38.899Z,3.00
2019-05-10T17:44:08.350Z,3.00
2019-05-10T17:46:37.751Z,3.27
2019-05-10T17:49:07.197Z,3.17
2019-05-10T17:51:36.620Z,3.07
2019-05-10T17:54:06.066Z,3.17
2019-05-10T17:56:38.977Z,3.30
2019-05-10T17:59:12.008Z,3.90
2019-05-10T18:01:37.792Z,3.50
2019-05-10T18:04:07.213Z,3.43
2019-05-10T18:06:36.640Z,3.87
2019-05-10T18:09:07.060Z,3.10
2019-05-10T18:11:42.158Z,3.20
2019-05-10T18:14:07.700Z,2.97
2019-05-10T18:16:41.943Z,2.80
2019-05-10T18:19:08.271Z,2.40
2019-05-10T18:21:37.693Z,3.10
2019-05-10T18:24:07.241Z,3.43
2019-05-10T18:26:39.665Z,3.17
2019-05-10T18:29:07.829Z,3.37
2019-05-10T18:31:37.297Z,3.37
2019-05-10T18:34:06.715Z,3.27
2019-05-10T18:36:51.203Z,2.70
2019-05-10T18:39:09.093Z,3.10
2019-05-10T18:41:41.438Z,3.83
2019-05-10T18:44:14.211Z,3.20
2019-05-10T18:46:42.036Z,3.80
2019-05-10T18:49:11.456Z,3.33
2019-05-10T18:51:40.883Z,3.30
2019-05-10T18:54:10.319Z,3.20
2019-05-10T18:56:39.751Z,4.10
2019-05-10T18:59:09.467Z,3.23
2019-05-10T19:01:40.689Z,3.90
2019-05-10T19:04:14.070Z,3.00
2019-05-10T19:06:44.127Z,4.37
2019-05-10T19:09:12.560Z,5.17
2019-05-10T19:11:41.985Z,5.53
2019-05-10T19:14:11.517Z,4.60
2019-05-10T19:16:41.019Z,3.37
2019-05-10T19:19:10.456Z,3.73
2019-05-10T19:21:39.903Z,3.53
2019-05-10T19:24:09.369Z,3.73
2019-05-10T19:26:38.943Z,3.40
2019-05-10T19:29:08.521Z,3.10
2019-05-10T19:31:40.281Z,3.20
2019-05-10T19:34:15.134Z,3.43
2019-05-10T19:36:40.593Z,4.23
2019-05-10T19:39:10.058Z,6.53
2019-05-10T19:41:39.477Z,3.23
2019-05-10T19:44:09.000Z,3.70
2019-05-10T19:46:40.540Z,4.00
2019-05-10T19:49:13.384Z,4.00
2019-05-10T19:51:42.121Z,4.00
2019-05-10T19:54:13.601Z,3.40
2019-05-10T19:56:43.028Z,3.27
2019-05-10T19:59:13.573Z,3.40
2019-05-10T20:01:45.388Z,3.70
2019-05-10T20:04:14.202Z,4.10
2019-05-10T20:06:43.663Z,3.43
2019-05-10T20:09:13.396Z,3.70
2019-05-10T20:11:42.914Z,3.90
2019-05-10T20:14:12.395Z,4.27
2019-05-10T20:16:51.989Z,3.43
2019-05-10T20:19:13.019Z,3.33
2019-05-10T20:21:42.637Z,3.20
2019-05-10T20:24:12.210Z,2.83
2019-05-10T20:26:41.784Z,2.67
2019-05-10T20:29:11.236Z,3.23
2019-05-10T20:31:40.660Z,3.53
2019-05-10T20:34:10.094Z,2.87
2019-05-10T20:36:39.516Z,2.80
2019-05-10T20:39:08.990Z,2.97
2019-05-10T20:41:38.436Z,3.60
2019-05-10T20:44:07.858Z,2.87
2019-05-10T20:46:37.354Z,3.23
2019-05-10T20:49:06.745Z,3.60
2019-05-10T20:51:36.297Z,3.20
2019-05-10T20:54:05.945Z,3.30
2019-05-10T20:56:35.503Z,2.90
2019-05-10T20:59:04.909Z,3.20
2019-05-10T21:01:34.415Z,2.70
2019-05-10T21:04:03.844Z,3.50
2019-05-10T21:06:33.282Z,3.45
2019-05-10T21:09:02.694Z,3.10
2019-05-10T21:11:32.104Z,3.00
2019-05-10T21:14:01.533Z,3.00
2019-05-10T21:16:31.244Z,2.80
2019-05-10T21:19:00.661Z,2.93
2019-05-10T21:21:30.079Z,3.30
2019-05-10T21:23:59.504Z,2.37
2019-05-10T21:26:29.021Z,2.50
2019-05-10T21:28:58.473Z,2.55
2019-05-10T21:31:27.921Z,2.77
2019-05-10T21:34:09.292Z,2.27
2019-05-10T21:36:28.523Z,1.80
2019-05-10T21:38:57.971Z,2.10
2019-05-10T21:41:27.383Z,2.03
2019-05-10T21:43:56.806Z,2.40
2019-05-10T21:46:26.202Z,2.10
2019-05-10T21:48:55.632Z,2.50
2019-05-10T21:51:25.065Z,2.37
2019-05-10T21:53:54.559Z,2.10
2019-05-10T21:56:23.956Z,2.10
2019-05-10T21:58:53.444Z,1.50
2019-05-10T22:01:22.861Z,2.00
2019-05-10T22:03:52.347Z,2.57
2019-05-10T22:06:21.732Z,2.00
2019-05-10T22:08:51.163Z,2.70
2019-05-10T22:11:20.585Z,2.40
2019-05-10T22:13:50.001Z,2.27
2019-05-10T22:16:19.495Z,2.03
2019-05-10T22:18:52.675Z,2.23
2019-05-10T22:21:22.097Z,2.03
2019-05-10T22:23:51.512Z,2.10
2019-05-10T22:26:20.946Z,2.40
2019-05-10T22:28:50.369Z,2.10
2019-05-10T22:31:19.789Z,2.60
2019-05-10T22:33:49.210Z,2.20
2019-05-10T22:36:18.637Z,2.20
2019-05-10T22:38:48.091Z,2.30
2019-05-10T22:41:17.503Z,2.47
2019-05-10T22:43:46.917Z,2.30
2019-05-10T22:46:16.335Z,2.77
2019-05-10T22:48:45.876Z,2.73
2019-05-10T22:51:15.298Z,2.13
2019-05-10T22:53:53.251Z,2.23
2019-05-10T22:56:15.872Z,2.63
2019-05-10T22:58:45.276Z,2.60
2019-05-10T23:01:14.703Z,2.13
2019-05-10T23:03:44.193Z,1.97
2019-05-10T23:06:13.719Z,2.17
2019-05-10T23:08:43.148Z,2.20
2019-05-10T23:11:12.583Z,1.90
2019-05-10T23:13:42.022Z,2.13
2019-05-10T23:16:11.476Z,2.07
2019-05-10T23:18:40.989Z,1.70
2019-05-10T23:21:10.393Z,2.30
2019-05-10T23:23:39.807Z,2.87
2019-05-10T23:26:09.273Z,2.50
2019-05-10T23:28:38.687Z,2.03
2019-05-10T23:31:08.099Z,2.20
2019-05-10T23:33:37.781Z,1.67
2019-05-10T23:36:07.457Z,2.00
2019-05-10T23:38:37.150Z,1.80
2019-05-10T23:41:06.873Z,2.00
2019-05-10T23:43:36.532Z,2.73
2019-05-10T23:46:06.295Z,1.77
2019-05-10T23:48:36.034Z,1.80
2019-05-10T23:51:05.701Z,1.60
2019-05-10T23:53:35.424Z,1.33
2019-05-10T23:56:05.103Z,1.70
2019-05-10T23:58:34.779Z,1.70
